sensor_id;sensor_type;location;lat;lon;timestamp;pressure;altitude;pressure_sealevel;temperature;humidity
37856;BME280;23694;43.274;26.924;2023-03-21T00:01:20;98875.84;;;6.06;98.55
37856;BME280;23694;43.274;26.924;2023-03-21T00:03:46;98884.00;;;6.15;98.84
37856;BME280;23694;43.274;26.924;2023-03-21T00:06:14;98882.09;;;6.19;96.90
37856;BME280;23694;43.274;26.924;2023-03-21T00:08:40;98877.19;;;6.13;96.39
37856;BME280;23694;43.274;26.924;2023-03-21T00:11:08;98884.16;;;6.12;95.75
37856;BME280;23694;43.274;26.924;2023-03-21T00:13:35;98873.69;;;6.14;95.64
37856;BME280;23694;43.274;26.924;2023-03-21T00:16:11;98870.69;;;6.21;95.21
37856;BME280;23694;43.274;26.924;2023-03-21T00:18:44;98864.28;;;6.11;96.23
37856;BME280;23694;43.274;26.924;2023-03-21T00:21:13;98866.13;;;6.09;97.23
37856;BME280;23694;43.274;26.924;2023-03-21T00:23:43;98855.75;;;5.92;98.44
37856;BME280;23694;43.274;26.924;2023-03-21T00:26:09;98851.47;;;5.91;99.18
37856;BME280;23694;43.274;26.924;2023-03-21T00:28:37;98861.25;;;5.84;100.00
37856;BME280;23694;43.274;26.924;2023-03-21T00:31:05;98855.75;;;5.56;100.00
37856;BME280;23694;43.274;26.924;2023-03-21T00:33:33;98868.22;;;5.84;100.00
37856;BME280;23694;43.274;26.924;2023-03-21T00:35:59;98859.13;;;5.75;100.00
37856;BME280;23694;43.274;26.924;2023-03-21T00:38:26;98860.31;;;5.87;100.00
37856;BME280;23694;43.274;26.924;2023-03-21T00:40:53;98860.72;;;5.96;100.00
37856;BME280;23694;43.274;26.924;2023-03-21T00:43:19;98857.19;;;5.97;100.00
37856;BME280;23694;43.274;26.924;2023-03-21T00:45:49;98861.94;;;5.89;100.00
37856;BME280;23694;43.274;26.924;2023-03-21T00:48:16;98845.22;;;5.76;100.00
37856;BME280;23694;43.274;26.924;2023-03-21T00:50:44;98854.63;;;5.79;100.00
37856;BME280;23694;43.274;26.924;2023-03-21T00:53:10;98845.13;;;5.78;100.00
37856;BME280;23694;43.274;26.924;2023-03-21T00:55:36;98847.81;;;5.76;100.00
37856;BME280;23694;43.274;26.924;2023-03-21T00:58:04;98856.38;;;5.78;100.00
37856;BME280;23694;43.274;26.924;2023-03-21T01:00:30;98854.00;;;5.73;100.00
37856;BME280;23694;43.274;26.924;2023-03-21T01:02:58;98838.41;;;5.73;100.00
37856;BME280;23694;43.274;26.924;2023-03-21T01:05:32;98842.63;;;5.76;100.00
37856;BME280;23694;43.274;26.924;2023-03-21T01:08:18;98849.41;;;5.79;100.00
37856;BME280;23694;43.274;26.924;2023-03-21T01:10:47;98846.38;;;5.88;99.51
37856;BME280;23694;43.274;26.924;2023-03-21T01:13:15;98845.66;;;5.84;97.64
37856;BME280;23694;43.274;26.924;2023-03-21T01:15:45;98835.59;;;5.78;97.18
37856;BME280;23694;43.274;26.924;2023-03-21T01:18:13;98837.50;;;5.74;98.47
37856;BME280;23694;43.274;26.924;2023-03-21T01:20:40;98846.81;;;5.79;96.71
37856;BME280;23694;43.274;26.924;2023-03-21T01:23:08;98848.56;;;5.78;96.76
37856;BME280;23694;43.274;26.924;2023-03-21T01:25:34;98839.94;;;5.60;97.08
37856;BME280;23694;43.274;26.924;2023-03-21T01:28:00;98828.03;;;5.39;99.00
37856;BME280;23694;43.274;26.924;2023-03-21T01:30:26;98821.31;;;5.35;99.57
37856;BME280;23694;43.274;26.924;2023-03-21T01:32:52;98824.63;;;5.20;100.00
37856;BME280;23694;43.274;26.924;2023-03-21T01:35:18;98821.22;;;5.36;100.00
37856;BME280;23694;43.274;26.924;2023-03-21T01:37:44;98819.47;;;5.54;100.00
37856;BME280;23694;43.274;26.924;2023-03-21T01:40:16;98816.34;;;5.65;99.61
37856;BME280;23694;43.274;26.924;2023-03-21T01:42:42;98810.53;;;5.60;100.00
37856;BME280;23694;43.274;26.924;2023-03-21T01:48:12;98811.69;;;5.89;99.28
37856;BME280;23694;43.274;26.924;2023-03-21T01:50:41;98803.81;;;5.90;98.61
37856;BME280;23694;43.274;26.924;2023-03-21T01:53:08;98803.03;;;6.06;97.39
37856;BME280;23694;43.274;26.924;2023-03-21T01:55:35;98809.75;;;6.10;96.11
37856;BME280;23694;43.274;26.924;2023-03-21T01:58:03;98817.47;;;6.11;96.17
37856;BME280;23694;43.274;26.924;2023-03-21T02:00:31;98828.94;;;6.07;96.72
37856;BME280;23694;43.274;26.924;2023-03-21T02:03:00;98828.63;;;6.13;97.39
37856;BME280;23694;43.274;26.924;2023-03-21T02:05:34;98825.47;;;5.91;98.07
37856;BME280;23694;43.274;26.924;2023-03-21T02:08:03;98816.94;;;5.70;99.61
37856;BME280;23694;43.274;26.924;2023-03-21T02:10:31;98817.03;;;5.51;100.00
37856;BME280;23694;43.274;26.924;2023-03-21T02:12:59;98820.41;;;5.17;100.00
37856;BME280;23694;43.274;26.924;2023-03-21T02:15:38;98814.22;;;5.02;100.00
37856;BME280;23694;43.274;26.924;2023-03-21T02:33:04;98814.81;;;5.26;100.00
37856;BME280;23694;43.274;26.924;2023-03-21T02:38:17;98815.03;;;5.39;100.00
37856;BME280;23694;43.274;26.924;2023-03-21T02:41:08;98812.75;;;5.50;100.00
37856;BME280;23694;43.274;26.924;2023-03-21T02:46:21;98821.63;;;5.46;100.00
37856;BME280;23694;43.274;26.924;2023-03-21T02:49:01;98812.38;;;5.40;100.00
37856;BME280;23694;43.274;26.924;2023-03-21T02:51:31;98811.59;;;5.56;100.00
37856;BME280;23694;43.274;26.924;2023-03-21T02:54:05;98802.66;;;5.44;100.00
37856;BME280;23694;43.274;26.924;2023-03-21T02:56:33;98788.53;;;4.96;100.00
37856;BME280;23694;43.274;26.924;2023-03-21T02:59:03;98792.53;;;5.03;100.00
37856;BME280;23694;43.274;26.924;2023-03-21T03:01:30;98795.09;;;5.22;100.00
37856;BME280;23694;43.274;26.924;2023-03-21T03:03:57;98799.38;;;5.40;100.00
37856;BME280;23694;43.274;26.924;2023-03-21T03:06:28;98791.81;;;5.36;100.00
37856;BME280;23694;43.274;26.924;2023-03-21T03:09:22;98796.16;;;5.35;100.00
37856;BME280;23694;43.274;26.924;2023-03-21T03:11:44;98793.91;;;5.10;100.00
37856;BME280;23694;43.274;26.924;2023-03-21T03:20:09;98804.00;;;5.17;100.00
37856;BME280;23694;43.274;26.924;2023-03-21T03:25:22;98801.22;;;5.38;100.00
37856;BME280;23694;43.274;26.924;2023-03-21T03:27:52;98788.75;;;5.28;100.00
37856;BME280;23694;43.274;26.924;2023-03-21T03:30:21;98801.44;;;5.34;100.00
37856;BME280;23694;43.274;26.924;2023-03-21T03:32:53;98800.06;;;5.44;100.00
37856;BME280;23694;43.274;26.924;2023-03-21T03:35:21;98801.59;;;5.48;100.00
37856;BME280;23694;43.274;26.924;2023-03-21T03:37:52;98785.63;;;5.38;100.00
37856;BME280;23694;43.274;26.924;2023-03-21T03:40:27;98783.72;;;5.25;100.00
37856;BME280;23694;43.274;26.924;2023-03-21T03:43:03;98802.28;;;5.34;100.00
37856;BME280;23694;43.274;26.924;2023-03-21T03:45:42;98791.34;;;5.45;100.00
37856;BME280;23694;43.274;26.924;2023-03-21T03:48:24;98788.84;;;5.44;100.00
37856;BME280;23694;43.274;26.924;2023-03-21T03:50:52;98787.59;;;5.51;100.00
37856;BME280;23694;43.274;26.924;2023-03-21T03:53:26;98779.91;;;5.49;100.00
37856;BME280;23694;43.274;26.924;2023-03-21T03:55:54;98779.59;;;5.38;100.00
37856;BME280;23694;43.274;26.924;2023-03-21T03:58:22;98784.31;;;5.47;100.00
37856;BME280;23694;43.274;26.924;2023-03-21T04:00:50;98783.19;;;5.53;100.00
37856;BME280;23694;43.274;26.924;2023-03-21T04:03:17;98771.09;;;5.52;100.00
37856;BME280;23694;43.274;26.924;2023-03-21T04:05:43;98781.50;;;5.34;100.00
37856;BME280;23694;43.274;26.924;2023-03-21T04:08:13;98786.38;;;5.40;100.00
37856;BME280;23694;43.274;26.924;2023-03-21T04:10:43;98798.06;;;5.49;100.00
37856;BME280;23694;43.274;26.924;2023-03-21T04:13:09;98807.00;;;5.44;100.00
37856;BME280;23694;43.274;26.924;2023-03-21T04:15:36;98806.88;;;5.47;100.00
37856;BME280;23694;43.274;26.924;2023-03-21T04:18:02;98805.41;;;5.41;100.00
37856;BME280;23694;43.274;26.924;2023-03-21T04:20:28;98802.72;;;5.60;100.00
37856;BME280;23694;43.274;26.924;2023-03-21T04:22:54;98791.41;;;5.61;100.00
37856;BME280;23694;43.274;26.924;2023-03-21T04:25:21;98794.41;;;5.53;100.00
37856;BME280;23694;43.274;26.924;2023-03-21T04:27:47;98786.25;;;5.26;100.00
37856;BME280;23694;43.274;26.924;2023-03-21T04:30:14;98792.28;;;5.27;100.00
37856;BME280;23694;43.274;26.924;2023-03-21T04:32:40;98805.47;;;5.22;100.00
37856;BME280;23694;43.274;26.924;2023-03-21T04:35:09;98819.63;;;5.51;100.00
37856;BME280;23694;43.274;26.924;2023-03-21T04:37:36;98809.38;;;5.65;100.00
37856;BME280;23694;43.274;26.924;2023-03-21T04:40:04;98806.25;;;5.59;100.00
37856;BME280;23694;43.274;26.924;2023-03-21T04:42:33;98801.53;;;5.50;100.00
37856;BME280;23694;43.274;26.924;2023-03-21T04:45:00;98798.97;;;5.65;100.00
37856;BME280;23694;43.274;26.924;2023-03-21T04:47:26;98801.56;;;5.83;100.00
37856;BME280;23694;43.274;26.924;2023-03-21T04:49:52;98810.84;;;5.88;100.00
37856;BME280;23694;43.274;26.924;2023-03-21T04:52:19;98801.91;;;5.59;100.00
37856;BME280;23694;43.274;26.924;2023-03-21T04:54:45;98798.66;;;5.71;100.00
37856;BME280;23694;43.274;26.924;2023-03-21T04:57:11;98788.22;;;5.56;100.00
37856;BME280;23694;43.274;26.924;2023-03-21T04:59:37;98794.88;;;5.44;100.00
37856;BME280;23694;43.274;26.924;2023-03-21T05:02:03;98785.56;;;5.04;100.00
37856;BME280;23694;43.274;26.924;2023-03-21T05:04:30;98791.09;;;5.15;100.00
37856;BME280;23694;43.274;26.924;2023-03-21T05:06:56;98804.41;;;5.44;100.00
37856;BME280;23694;43.274;26.924;2023-03-21T05:09:24;98790.38;;;5.48;100.00
37856;BME280;23694;43.274;26.924;2023-03-21T05:11:51;98795.63;;;5.29;100.00
37856;BME280;23694;43.274;26.924;2023-03-21T05:14:20;98790.19;;;4.80;100.00
37856;BME280;23694;43.274;26.924;2023-03-21T05:16:47;98803.91;;;5.01;100.00
37856;BME280;23694;43.274;26.924;2023-03-21T05:19:18;98808.63;;;5.10;100.00
37856;BME280;23694;43.274;26.924;2023-03-21T05:21:48;98813.63;;;5.15;100.00
37856;BME280;23694;43.274;26.924;2023-03-21T05:24:18;98827.22;;;5.20;100.00
37856;BME280;23694;43.274;26.924;2023-03-21T05:26:45;98830.53;;;5.23;100.00
37856;BME280;23694;43.274;26.924;2023-03-21T05:29:16;98817.81;;;5.17;100.00
37856;BME280;23694;43.274;26.924;2023-03-21T05:31:43;98832.84;;;5.29;100.00
37856;BME280;23694;43.274;26.924;2023-03-21T05:34:12;98828.41;;;5.31;100.00
37856;BME280;23694;43.274;26.924;2023-03-21T05:36:38;98836.13;;;5.33;100.00
37856;BME280;23694;43.274;26.924;2023-03-21T05:39:05;98847.88;;;5.40;100.00
37856;BME280;23694;43.274;26.924;2023-03-21T05:41:32;98842.91;;;5.35;100.00
37856;BME280;23694;43.274;26.924;2023-03-21T05:43:58;98828.09;;;5.37;100.00
37856;BME280;23694;43.274;26.924;2023-03-21T05:46:25;98835.50;;;5.45;100.00
37856;BME280;23694;43.274;26.924;2023-03-21T05:48:51;98831.63;;;5.54;100.00
37856;BME280;23694;43.274;26.924;2023-03-21T05:51:17;98825.44;;;5.56;100.00
37856;BME280;23694;43.274;26.924;2023-03-21T05:53:43;98828.34;;;5.67;100.00
37856;BME280;23694;43.274;26.924;2023-03-21T05:56:09;98841.06;;;5.91;100.00
37856;BME280;23694;43.274;26.924;2023-03-21T05:58:35;98839.28;;;6.09;100.00
37856;BME280;23694;43.274;26.924;2023-03-21T06:01:01;98836.44;;;6.13;100.00
37856;BME280;23694;43.274;26.924;2023-03-21T06:03:28;98831.44;;;6.26;100.00
37856;BME280;23694;43.274;26.924;2023-03-21T06:05:54;98836.81;;;6.39;100.00
37856;BME280;23694;43.274;26.924;2023-03-21T06:08:20;98827.09;;;6.42;100.00
37856;BME280;23694;43.274;26.924;2023-03-21T06:10:46;98839.41;;;6.72;100.00
37856;BME280;23694;43.274;26.924;2023-03-21T06:13:12;98829.84;;;6.88;100.00
37856;BME280;23694;43.274;26.924;2023-03-21T06:15:38;98823.03;;;7.01;100.00
37856;BME280;23694;43.274;26.924;2023-03-21T06:18:04;98818.97;;;7.27;100.00
37856;BME280;23694;43.274;26.924;2023-03-21T06:20:31;98820.75;;;7.56;100.00
37856;BME280;23694;43.274;26.924;2023-03-21T06:22:57;98809.09;;;7.48;100.00
37856;BME280;23694;43.274;26.924;2023-03-21T06:25:23;98817.22;;;8.02;98.20
37856;BME280;23694;43.274;26.924;2023-03-21T06:27:49;98820.88;;;8.42;96.03
37856;BME280;23694;43.274;26.924;2023-03-21T06:30:16;98805.56;;;8.78;92.58
37856;BME280;23694;43.274;26.924;2023-03-21T06:32:42;98809.56;;;8.84;89.72
37856;BME280;23694;43.274;26.924;2023-03-21T06:35:09;98815.13;;;8.92;88.79
37856;BME280;23694;43.274;26.924;2023-03-21T06:37:35;98806.47;;;8.92;88.18
37856;BME280;23694;43.274;26.924;2023-03-21T06:40:01;98822.47;;;9.00;86.36
37856;BME280;23694;43.274;26.924;2023-03-21T06:42:29;98818.44;;;9.08;86.70
37856;BME280;23694;43.274;26.924;2023-03-21T06:44:57;98819.44;;;9.20;86.59
37856;BME280;23694;43.274;26.924;2023-03-21T06:47:23;98820.09;;;9.24;85.17
37856;BME280;23694;43.274;26.924;2023-03-21T06:49:49;98823.69;;;9.35;84.60
37856;BME280;23694;43.274;26.924;2023-03-21T06:52:16;98834.47;;;9.43;83.64
37856;BME280;23694;43.274;26.924;2023-03-21T06:54:42;98831.06;;;9.56;82.86
37856;BME280;23694;43.274;26.924;2023-03-21T06:57:08;98821.09;;;9.48;83.64
37856;BME280;23694;43.274;26.924;2023-03-21T06:59:35;98814.91;;;9.36;83.85
37856;BME280;23694;43.274;26.924;2023-03-21T07:02:01;98821.38;;;8.89;87.07
37856;BME280;23694;43.274;26.924;2023-03-21T07:04:27;98819.28;;;9.09;85.76
37856;BME280;23694;43.274;26.924;2023-03-21T07:06:53;98822.09;;;8.36;88.02
37856;BME280;23694;43.274;26.924;2023-03-21T07:09:19;98820.56;;;8.04;91.24
37856;BME280;23694;43.274;26.924;2023-03-21T07:11:49;98821.63;;;8.44;91.76
37856;BME280;23694;43.274;26.924;2023-03-21T07:14:18;98804.28;;;8.43;90.60
37856;BME280;23694;43.274;26.924;2023-03-21T07:16:44;98798.41;;;7.52;97.85
37856;BME280;23694;43.274;26.924;2023-03-21T07:19:11;98801.66;;;7.86;96.65
37856;BME280;23694;43.274;26.924;2023-03-21T07:21:37;98802.03;;;7.64;98.15
37856;BME280;23694;43.274;26.924;2023-03-21T07:24:03;98807.31;;;7.03;100.00
37856;BME280;23694;43.274;26.924;2023-03-21T07:26:29;98803.06;;;6.54;100.00
37856;BME280;23694;43.274;26.924;2023-03-21T07:28:55;98808.16;;;6.72;100.00
37856;BME280;23694;43.274;26.924;2023-03-21T07:31:21;98812.59;;;7.17;100.00
37856;BME280;23694;43.274;26.924;2023-03-21T07:33:50;98824.91;;;7.45;100.00
37856;BME280;23694;43.274;26.924;2023-03-21T07:36:16;98810.41;;;7.55;100.00
37856;BME280;23694;43.274;26.924;2023-03-21T07:38:43;98790.03;;;7.61;100.00
37856;BME280;23694;43.274;26.924;2023-03-21T07:41:11;98794.50;;;7.59;100.00
37856;BME280;23694;43.274;26.924;2023-03-21T07:43:37;98791.50;;;7.06;100.00
37856;BME280;23694;43.274;26.924;2023-03-21T07:46:03;98793.97;;;6.93;100.00
37856;BME280;23694;43.274;26.924;2023-03-21T07:48:30;98783.56;;;6.93;100.00
37856;BME280;23694;43.274;26.924;2023-03-21T07:50:56;98794.81;;;6.78;100.00
37856;BME280;23694;43.274;26.924;2023-03-21T07:53:22;98801.41;;;7.15;100.00
37856;BME280;23694;43.274;26.924;2023-03-21T07:55:53;98789.78;;;7.36;100.00
37856;BME280;23694;43.274;26.924;2023-03-21T07:58:24;98793.19;;;7.22;100.00
37856;BME280;23694;43.274;26.924;2023-03-21T08:00:51;98794.25;;;7.78;100.00
37856;BME280;23694;43.274;26.924;2023-03-21T08:03:18;98793.00;;;8.28;100.00
37856;BME280;23694;43.274;26.924;2023-03-21T08:05:44;98786.41;;;8.51;99.99
37856;BME280;23694;43.274;26.924;2023-03-21T08:08:11;98797.03;;;8.62;97.37
37856;BME280;23694;43.274;26.924;2023-03-21T08:10:37;98793.94;;;8.97;97.02
37856;BME280;23694;43.274;26.924;2023-03-21T08:13:03;98796.94;;;9.44;93.99
37856;BME280;23694;43.274;26.924;2023-03-21T08:15:30;98798.31;;;9.63;91.05
37856;BME280;23694;43.274;26.924;2023-03-21T08:17:58;98790.75;;;9.85;89.20
37856;BME280;23694;43.274;26.924;2023-03-21T08:20:24;98780.81;;;10.41;86.54
37856;BME280;23694;43.274;26.924;2023-03-21T08:22:53;98795.38;;;10.82;83.58
37856;BME280;23694;43.274;26.924;2023-03-21T08:25:20;98799.31;;;10.87;80.54
37856;BME280;23694;43.274;26.924;2023-03-21T08:27:47;98785.56;;;10.96;80.50
37856;BME280;23694;43.274;26.924;2023-03-21T08:30:19;98796.19;;;11.19;78.51
37856;BME280;23694;43.274;26.924;2023-03-21T08:32:49;98798.75;;;11.31;78.19
37856;BME280;23694;43.274;26.924;2023-03-21T08:35:17;98795.97;;;11.81;76.12
37856;BME280;23694;43.274;26.924;2023-03-21T08:37:46;98794.09;;;12.05;73.63
37856;BME280;23694;43.274;26.924;2023-03-21T08:40:15;98796.28;;;12.56;72.29
37856;BME280;23694;43.274;26.924;2023-03-21T08:42:42;98800.78;;;12.76;71.79
37856;BME280;23694;43.274;26.924;2023-03-21T08:45:10;98809.25;;;12.80;71.02
37856;BME280;23694;43.274;26.924;2023-03-21T08:47:36;98799.53;;;13.14;69.29
37856;BME280;23694;43.274;26.924;2023-03-21T08:50:05;98803.03;;;13.46;67.96
37856;BME280;23694;43.274;26.924;2023-03-21T08:52:32;98806.22;;;13.29;67.43
37856;BME280;23694;43.274;26.924;2023-03-21T08:54:58;98794.38;;;13.23;68.11
37856;BME280;23694;43.274;26.924;2023-03-21T08:57:24;98803.97;;;11.90;72.15
37856;BME280;23694;43.274;26.924;2023-03-21T08:59:53;98801.25;;;11.09;79.32
37856;BME280;23694;43.274;26.924;2023-03-21T09:02:20;98799.69;;;11.65;77.07
37856;BME280;23694;43.274;26.924;2023-03-21T09:04:46;98791.72;;;12.02;74.91
37856;BME280;23694;43.274;26.924;2023-03-21T09:07:12;98792.06;;;11.27;79.03
37856;BME280;23694;43.274;26.924;2023-03-21T09:09:40;98793.47;;;10.34;83.38
37856;BME280;23694;43.274;26.924;2023-03-21T09:12:06;98790.41;;;10.53;83.58
37856;BME280;23694;43.274;26.924;2023-03-21T09:14:32;98792.13;;;10.41;84.89
37856;BME280;23694;43.274;26.924;2023-03-21T09:17:00;98788.78;;;11.48;80.74
37856;BME280;23694;43.274;26.924;2023-03-21T09:19:26;98787.91;;;12.17;76.44
37856;BME280;23694;43.274;26.924;2023-03-21T09:21:53;98783.97;;;12.34;74.81
37856;BME280;23694;43.274;26.924;2023-03-21T09:24:20;98780.78;;;12.96;72.94
37856;BME280;23694;43.274;26.924;2023-03-21T09:26:46;98766.63;;;13.30;69.49
37856;BME280;23694;43.274;26.924;2023-03-21T09:29:16;98777.28;;;13.29;69.78
37856;BME280;23694;43.274;26.924;2023-03-21T09:31:44;98771.13;;;12.96;71.15
37856;BME280;23694;43.274;26.924;2023-03-21T09:34:11;98781.56;;;13.30;70.02
37856;BME280;23694;43.274;26.924;2023-03-21T09:36:41;98781.41;;;13.43;68.92
37856;BME280;23694;43.274;26.924;2023-03-21T09:39:09;98780.47;;;13.32;69.74
37856;BME280;23694;43.274;26.924;2023-03-21T09:44:31;98784.75;;;13.01;73.65
37856;BME280;23694;43.274;26.924;2023-03-21T09:47:24;98771.94;;;12.43;75.41
37856;BME280;23694;43.274;26.924;2023-03-21T09:50:15;98774.31;;;12.46;75.50
37856;BME280;23694;43.274;26.924;2023-03-21T09:52:56;98775.28;;;12.99;75.33
37856;BME280;23694;43.274;26.924;2023-03-21T09:55:25;98773.59;;;13.73;70.96
37856;BME280;23694;43.274;26.924;2023-03-21T10:00:27;98774.63;;;14.64;66.08
37856;BME280;23694;43.274;26.924;2023-03-21T10:03:02;98769.06;;;15.16;64.58
37856;BME280;23694;43.274;26.924;2023-03-21T10:05:32;98774.88;;;14.51;65.93
37856;BME280;23694;43.274;26.924;2023-03-21T10:08:07;98776.28;;;15.14;63.52
37856;BME280;23694;43.274;26.924;2023-03-21T10:10:37;98769.59;;;15.01;63.07
37856;BME280;23694;43.274;26.924;2023-03-21T10:13:13;98774.47;;;15.53;61.33
37856;BME280;23694;43.274;26.924;2023-03-21T10:15:40;98778.28;;;15.61;61.27
37856;BME280;23694;43.274;26.924;2023-03-21T10:18:09;98775.03;;;15.28;61.79
37856;BME280;23694;43.274;26.924;2023-03-21T10:20:41;98767.44;;;15.64;61.12
37856;BME280;23694;43.274;26.924;2023-03-21T10:23:12;98771.00;;;15.82;60.21
37856;BME280;23694;43.274;26.924;2023-03-21T10:25:42;98773.66;;;15.82;59.77
37856;BME280;23694;43.274;26.924;2023-03-21T10:28:15;98775.34;;;15.73;60.35
37856;BME280;23694;43.274;26.924;2023-03-21T10:30:49;98772.97;;;15.80;60.35
37856;BME280;23694;43.274;26.924;2023-03-21T10:33:28;98767.53;;;15.23;63.46
37856;BME280;23694;43.274;26.924;2023-03-21T10:36:09;98765.31;;;15.29;62.89
37856;BME280;23694;43.274;26.924;2023-03-21T10:38:39;98745.88;;;15.01;63.72
37856;BME280;23694;43.274;26.924;2023-03-21T10:41:10;98764.00;;;14.84;66.57
37856;BME280;23694;43.274;26.924;2023-03-21T10:43:39;98758.19;;;14.90;66.08
37856;BME280;23694;43.274;26.924;2023-03-21T10:46:16;98748.66;;;15.09;65.38
37856;BME280;23694;43.274;26.924;2023-03-21T10:48:44;98747.81;;;14.49;67.31
37856;BME280;23694;43.274;26.924;2023-03-21T10:51:21;98743.09;;;15.21;65.19
37856;BME280;23694;43.274;26.924;2023-03-21T10:53:51;98733.84;;;14.68;66.24
37856;BME280;23694;43.274;26.924;2023-03-21T10:56:23;98739.75;;;15.19;64.86
37856;BME280;23694;43.274;26.924;2023-03-21T10:58:53;98727.63;;;14.78;65.27
37856;BME280;23694;43.274;26.924;2023-03-21T11:01:29;98736.91;;;14.73;66.66
37856;BME280;23694;43.274;26.924;2023-03-21T11:04:00;98735.72;;;14.96;66.07
37856;BME280;23694;43.274;26.924;2023-03-21T11:06:32;98732.94;;;14.98;66.36
37856;BME280;23694;43.274;26.924;2023-03-21T11:09:22;98732.38;;;14.94;65.13
37856;BME280;23694;43.274;26.924;2023-03-21T11:11:53;98727.19;;;14.73;67.05
37856;BME280;23694;43.274;26.924;2023-03-21T11:14:44;98718.59;;;14.71;67.24
37856;BME280;23694;43.274;26.924;2023-03-21T11:20:04;98712.63;;;13.99;70.43
37856;BME280;23694;43.274;26.924;2023-03-21T11:22:41;98708.16;;;14.20;69.23
37856;BME280;23694;43.274;26.924;2023-03-21T11:25:18;98715.31;;;13.78;71.26
37856;BME280;23694;43.274;26.924;2023-03-21T11:27:53;98699.63;;;14.07;70.88
37856;BME280;23694;43.274;26.924;2023-03-21T11:30:25;98705.47;;;14.10;71.19
37856;BME280;23694;43.274;26.924;2023-03-21T11:33:01;98703.59;;;14.52;69.37
37856;BME280;23694;43.274;26.924;2023-03-21T11:35:36;98700.69;;;14.55;68.97
37856;BME280;23694;43.274;26.924;2023-03-21T11:38:04;98698.75;;;14.67;68.37
37856;BME280;23694;43.274;26.924;2023-03-21T11:40:32;98700.66;;;14.46;68.97
37856;BME280;23694;43.274;26.924;2023-03-21T11:43:05;98700.53;;;14.47;69.26
37856;BME280;23694;43.274;26.924;2023-03-21T11:46:15;98693.84;;;14.43;69.83
37856;BME280;23694;43.274;26.924;2023-03-21T11:48:43;98695.41;;;14.55;69.09
37856;BME280;23694;43.274;26.924;2023-03-21T11:56:48;98690.75;;;13.98;70.73
37856;BME280;23694;43.274;26.924;2023-03-21T12:05:55;98684.03;;;14.24;69.88
37856;BME280;23694;43.274;26.924;2023-03-21T12:08:46;98689.16;;;14.47;68.87
37856;BME280;23694;43.274;26.924;2023-03-21T12:14:46;98679.31;;;14.49;68.14
37856;BME280;23694;43.274;26.924;2023-03-21T12:20:15;98684.50;;;13.99;70.35
37856;BME280;23694;43.274;26.924;2023-03-21T12:31:11;98678.06;;;14.22;68.41
37856;BME280;23694;43.274;26.924;2023-03-21T12:44:55;98674.78;;;13.90;69.28
37856;BME280;23694;43.274;26.924;2023-03-21T12:47:25;98677.88;;;14.05;69.24
37856;BME280;23694;43.274;26.924;2023-03-21T12:50:08;98675.91;;;13.97;68.18
37856;BME280;23694;43.274;26.924;2023-03-21T12:52:41;98680.13;;;14.19;68.33
37856;BME280;23694;43.274;26.924;2023-03-21T12:55:30;98672.94;;;14.51;65.89
37856;BME280;23694;43.274;26.924;2023-03-21T12:58:08;98667.66;;;14.61;65.33
37856;BME280;23694;43.274;26.924;2023-03-21T13:00:55;98661.50;;;14.41;65.56
37856;BME280;23694;43.274;26.924;2023-03-21T13:03:23;98659.47;;;14.45;65.90
37856;BME280;23694;43.274;26.924;2023-03-21T13:05:59;98665.19;;;14.29;65.94
37856;BME280;23694;43.274;26.924;2023-03-21T13:11:22;98662.59;;;14.39;64.30
37856;BME280;23694;43.274;26.924;2023-03-21T13:14:11;98662.19;;;14.34;65.14
37856;BME280;23694;43.274;26.924;2023-03-21T13:16:52;98653.53;;;14.22;66.47
37856;BME280;23694;43.274;26.924;2023-03-21T13:24:48;98656.00;;;14.54;66.77
37856;BME280;23694;43.274;26.924;2023-03-21T13:27:29;98647.25;;;14.44;67.60
37856;BME280;23694;43.274;26.924;2023-03-21T13:30:04;98645.19;;;14.47;67.97
37856;BME280;23694;43.274;26.924;2023-03-21T13:32:39;98642.28;;;14.20;68.99
37856;BME280;23694;43.274;26.924;2023-03-21T13:35:20;98643.25;;;14.09;70.14
37856;BME280;23694;43.274;26.924;2023-03-21T13:40:37;98639.53;;;14.21;73.17
37856;BME280;23694;43.274;26.924;2023-03-21T13:48:55;98630.56;;;13.93;78.87
37856;BME280;23694;43.274;26.924;2023-03-21T13:56:55;98639.63;;;14.10;77.82
37856;BME280;23694;43.274;26.924;2023-03-21T14:02:29;98628.81;;;14.04;78.88
37856;BME280;23694;43.274;26.924;2023-03-21T14:05:21;98634.69;;;13.77;80.21
37856;BME280;23694;43.274;26.924;2023-03-21T14:07:52;98631.34;;;13.75;80.72
37856;BME280;23694;43.274;26.924;2023-03-21T14:10:25;98630.97;;;13.89;79.94
37856;BME280;23694;43.274;26.924;2023-03-21T14:12:52;98626.97;;;13.94;79.09
37856;BME280;23694;43.274;26.924;2023-03-21T14:15:25;98626.97;;;13.94;79.22
37856;BME280;23694;43.274;26.924;2023-03-21T14:17:55;98628.09;;;14.02;79.05
37856;BME280;23694;43.274;26.924;2023-03-21T14:20:28;98620.00;;;13.84;80.53
37856;BME280;23694;43.274;26.924;2023-03-21T14:22:54;98614.59;;;13.76;81.31
37856;BME280;23694;43.274;26.924;2023-03-21T14:25:22;98620.44;;;13.89;80.29
37856;BME280;23694;43.274;26.924;2023-03-21T14:27:53;98616.59;;;14.03;79.77
37856;BME280;23694;43.274;26.924;2023-03-21T14:30:24;98613.41;;;13.99;79.37
37856;BME280;23694;43.274;26.924;2023-03-21T14:32:54;98611.75;;;13.98;80.19
37856;BME280;23694;43.274;26.924;2023-03-21T14:35:21;98616.59;;;14.03;80.46
37856;BME280;23694;43.274;26.924;2023-03-21T14:37:48;98628.59;;;13.86;80.32
37856;BME280;23694;43.274;26.924;2023-03-21T14:40:24;98628.91;;;13.62;81.80
37856;BME280;23694;43.274;26.924;2023-03-21T14:42:52;98627.19;;;13.51;82.57
37856;BME280;23694;43.274;26.924;2023-03-21T14:48:04;98642.47;;;13.37;83.52
37856;BME280;23694;43.274;26.924;2023-03-21T14:50:51;98635.34;;;13.48;83.17
37856;BME280;23694;43.274;26.924;2023-03-21T14:53:20;98634.63;;;13.46;83.12